createdAt,value
2018-04-29T00:01:59.507Z,13.10
2018-04-29T00:04:27.082Z,11.03
2018-04-29T00:06:54.644Z,11.00
2018-04-29T00:09:22.188Z,10.13
2018-04-29T00:11:49.731Z,11.10
2018-04-29T00:14:17.278Z,10.97
2018-04-29T00:16:44.864Z,10.83
2018-04-29T00:19:12.412Z,10.47
2018-04-29T00:21:39.947Z,10.63
2018-04-29T00:24:07.496Z,11.53
2018-04-29T00:26:35.077Z,11.20
2018-04-29T00:29:02.623Z,12.17
2018-04-29T00:31:30.159Z,11.63
2018-04-29T00:33:57.698Z,12.30
2018-04-29T00:36:25.263Z,12.73
2018-04-29T00:38:52.803Z,12.13
2018-04-29T00:41:20.330Z,12.17
2018-04-29T00:43:47.858Z,12.37
2018-04-29T00:46:15.416Z,12.63
2018-04-29T00:48:42.980Z,12.30
2018-04-29T00:51:10.519Z,13.27
2018-04-29T00:53:38.059Z,12.93
2018-04-29T00:56:05.619Z,14.07
2018-04-29T00:58:33.228Z,12.60
2018-04-29T01:01:00.820Z,13.17
2018-04-29T01:03:28.355Z,13.47
2018-04-29T01:05:55.886Z,13.03
2018-04-29T01:08:23.443Z,13.37
2018-04-29T01:10:50.983Z,13.10
2018-04-29T01:13:18.527Z,13.33
2018-04-29T01:15:46.068Z,14.70
2018-04-29T01:18:13.608Z,13.87
2018-04-29T01:20:41.139Z,13.40
2018-04-29T01:23:08.736Z,13.63
2018-04-29T01:25:36.248Z,12.87
2018-04-29T01:28:03.803Z,12.23
2018-04-29T01:30:31.390Z,11.90
2018-04-29T01:32:58.931Z,11.80
2018-04-29T01:35:26.543Z,12.87
2018-04-29T01:37:54.112Z,12.50
2018-04-29T01:40:21.647Z,12.23
2018-04-29T01:42:58.685Z,12.60
2018-04-29T01:45:26.807Z,12.23
2018-04-29T01:47:54.371Z,11.93
2018-04-29T01:50:21.926Z,11.40
2018-04-29T01:52:49.461Z,11.60
2018-04-29T01:55:18.006Z,11.67
2018-04-29T01:57:45.606Z,11.27
2018-04-29T02:00:13.241Z,11.90
2018-04-29T02:02:40.798Z,11.40
2018-04-29T02:05:08.343Z,11.90
2018-04-29T02:07:35.887Z,11.13
2018-04-29T02:10:03.450Z,11.13
2018-04-29T02:12:30.983Z,10.33
2018-04-29T02:14:58.571Z,10.83
2018-04-29T02:17:26.171Z,11.10
2018-04-29T02:19:53.702Z,10.70
2018-04-29T02:22:21.253Z,10.30
2018-04-29T02:24:48.787Z,10.50
2018-04-29T02:27:16.348Z,10.10
2018-04-29T02:29:43.881Z,11.03
2018-04-29T02:32:11.459Z,10.40
2018-04-29T02:34:39.072Z,10.27
2018-04-29T02:37:06.651Z,9.87
2018-04-29T02:39:34.184Z,10.50
2018-04-29T02:42:01.729Z,9.87
2018-04-29T02:44:29.271Z,10.83
2018-04-29T02:46:56.810Z,10.53
2018-04-29T02:49:24.386Z,11.40
2018-04-29T02:51:51.928Z,10.47
2018-04-29T02:54:19.487Z,10.47
2018-04-29T02:56:47.043Z,9.63
2018-04-29T02:59:14.613Z,9.90
2018-04-29T03:01:42.165Z,10.23
2018-04-29T03:04:09.716Z,9.40
2018-04-29T03:06:37.307Z,9.60
2018-04-29T03:09:05.495Z,9.83
2018-04-29T03:11:33.079Z,9.63
2018-04-29T03:14:00.620Z,9.33
2018-04-29T03:16:28.156Z,10.60
2018-04-29T03:18:55.704Z,9.60
2018-04-29T03:21:23.239Z,10.53
2018-04-29T03:23:50.818Z,10.30
2018-04-29T03:26:18.390Z,11.13
2018-04-29T03:28:45.986Z,9.77
2018-04-29T03:31:14.496Z,10.30
2018-04-29T03:33:42.044Z,10.63
2018-04-29T03:36:09.589Z,10.17
2018-04-29T03:38:37.183Z,11.50
2018-04-29T03:41:04.774Z,11.73
2018-04-29T03:43:32.369Z,11.63
2018-04-29T03:45:59.933Z,9.87
2018-04-29T03:48:27.479Z,10.20
2018-04-29T03:50:55.088Z,10.00
2018-04-29T03:53:22.635Z,10.43
2018-04-29T03:55:50.189Z,9.50
2018-04-29T03:58:29.416Z,10.20
2018-04-29T04:01:08.617Z,9.63
2018-04-29T04:06:40.296Z,8.87
2018-04-29T04:09:07.827Z,9.53
2018-04-29T04:11:35.363Z,9.23
2018-04-29T04:14:02.938Z,9.10
2018-04-29T04:16:30.471Z,10.07
2018-04-29T04:18:58.045Z,9.47
2018-04-29T04:21:25.629Z,10.73
2018-04-29T04:23:53.166Z,9.00
2018-04-29T04:26:20.708Z,9.20
2018-04-29T04:28:48.264Z,8.97
2018-04-29T04:31:15.847Z,9.07
2018-04-29T04:33:43.408Z,8.97
2018-04-29T04:36:10.935Z,8.70
2018-04-29T04:38:38.475Z,9.30
2018-04-29T04:41:06.047Z,8.60
2018-04-29T04:43:33.628Z,8.20
2018-04-29T04:46:01.210Z,8.60
2018-04-29T04:48:28.795Z,8.03
2018-04-29T04:50:56.327Z,8.57
2018-04-29T04:53:23.868Z,8.73
2018-04-29T04:55:51.400Z,8.97
2018-04-29T04:58:18.939Z,9.63
2018-04-29T05:00:46.515Z,9.57
2018-04-29T05:03:14.044Z,9.00
2018-04-29T05:05:41.660Z,9.70
2018-04-29T05:08:09.195Z,9.07
2018-04-29T05:10:36.775Z,9.07
2018-04-29T05:13:04.358Z,8.30
2018-04-29T05:15:31.924Z,8.60
2018-04-29T05:17:59.515Z,8.13
2018-04-29T05:20:26.999Z,8.63
2018-04-29T05:22:54.578Z,8.17
2018-04-29T05:25:22.197Z,8.17
2018-04-29T05:27:49.762Z,8.80
2018-04-29T05:30:17.348Z,8.10
2018-04-29T05:32:44.900Z,8.40
2018-04-29T05:35:12.435Z,8.90
2018-04-29T05:37:39.976Z,9.40
2018-04-29T05:40:07.554Z,9.97
2018-04-29T05:42:35.179Z,8.77
2018-04-29T05:45:02.707Z,7.97
2018-04-29T05:47:30.250Z,8.80
2018-04-29T05:49:57.818Z,8.37
2018-04-29T05:52:25.391Z,8.27
2018-04-29T05:54:52.923Z,8.03
2018-04-29T05:57:20.456Z,8.07
2018-04-29T05:59:48.013Z,7.90
2018-04-29T06:02:15.547Z,7.77
2018-04-29T06:04:43.112Z,7.87
2018-04-29T06:07:10.680Z,8.17
2018-04-29T06:09:38.263Z,7.70
2018-04-29T06:12:05.799Z,7.33
2018-04-29T06:14:33.323Z,7.73
2018-04-29T06:17:02.653Z,7.40
2018-04-29T06:19:30.304Z,7.93
2018-04-29T06:21:57.888Z,7.73
2018-04-29T06:24:25.505Z,7.63
2018-04-29T06:26:52.993Z,7.83
2018-04-29T06:29:20.576Z,8.50
2018-04-29T06:31:48.124Z,7.97
2018-04-29T06:34:15.654Z,8.77
2018-04-29T06:36:43.187Z,8.43
2018-04-29T06:39:10.759Z,9.47
2018-04-29T06:41:38.320Z,8.43
2018-04-29T06:44:05.855Z,8.93
2018-04-29T06:46:33.628Z,8.97
2018-04-29T06:49:01.199Z,12.07
2018-04-29T06:51:28.755Z,11.60
2018-04-29T06:53:56.311Z,11.50
2018-04-29T06:56:23.852Z,12.03
2018-04-29T06:58:51.397Z,10.13
2018-04-29T07:01:18.944Z,10.75
2018-04-29T07:03:46.488Z,10.77
2018-04-29T07:06:14.024Z,11.23
2018-04-29T07:08:41.567Z,10.13
2018-04-29T07:11:09.119Z,10.95
2018-04-29T07:13:36.669Z,11.05
2018-04-29T07:16:04.227Z,11.48
2018-04-29T07:18:31.766Z,12.88
2018-04-29T07:20:59.306Z,12.98
2018-04-29T07:23:26.849Z,12.27
2018-04-29T07:25:54.383Z,12.27
2018-04-29T07:28:21.991Z,12.80
2018-04-29T07:30:49.528Z,12.70
2018-04-29T07:33:17.075Z,11.90
2018-04-29T07:35:44.647Z,11.88
2018-04-29T07:38:12.207Z,11.60
2018-04-29T07:40:39.797Z,12.52
2018-04-29T07:43:07.407Z,11.57
2018-04-29T07:45:34.964Z,11.80
2018-04-29T07:48:02.523Z,12.43
2018-04-29T07:50:30.075Z,12.18
2018-04-29T07:52:57.653Z,11.88
2018-04-29T07:55:25.225Z,11.52
2018-04-29T07:57:52.806Z,11.93
2018-04-29T08:00:20.384Z,12.10
2018-04-29T08:02:47.931Z,12.00
2018-04-29T08:05:15.542Z,12.37
2018-04-29T08:07:43.096Z,11.90
2018-04-29T08:10:10.649Z,12.35
2018-04-29T08:12:38.226Z,11.57
2018-04-29T08:15:05.792Z,11.85
2018-04-29T08:17:33.342Z,12.52
2018-04-29T08:20:00.882Z,12.25
2018-04-29T08:22:28.483Z,11.02
2018-04-29T08:24:56.022Z,11.43
2018-04-29T08:27:23.603Z,12.32
2018-04-29T08:29:51.235Z,12.10
2018-04-29T08:32:18.788Z,11.57
2018-04-29T08:34:46.347Z,11.10
2018-04-29T08:37:13.927Z,11.00
2018-04-29T08:39:41.472Z,11.52
2018-04-29T08:42:09.010Z,10.20
2018-04-29T08:44:36.545Z,10.70
2018-04-29T08:47:04.145Z,11.05
2018-04-29T08:49:31.788Z,10.27
2018-04-29T08:51:59.321Z,10.07
2018-04-29T08:54:26.858Z,9.98
2018-04-29T08:56:54.391Z,10.70
2018-04-29T08:59:21.952Z,10.52
2018-04-29T09:01:49.488Z,9.85
2018-04-29T09:04:17.027Z,9.52
2018-04-29T09:06:44.578Z,10.30
2018-04-29T09:09:12.135Z,9.85
2018-04-29T09:11:39.776Z,10.57
2018-04-29T09:14:07.357Z,9.65
2018-04-29T09:16:34.907Z,10.02
2018-04-29T09:19:02.491Z,9.18
2018-04-29T09:21:30.036Z,9.23
2018-04-29T09:23:57.575Z,10.05
2018-04-29T09:26:25.106Z,8.25
2018-04-29T09:28:52.675Z,8.18
2018-04-29T09:31:20.245Z,6.40
2018-04-29T09:33:47.803Z,7.12
2018-04-29T09:36:15.383Z,6.80
2018-04-29T09:38:42.927Z,7.68
2018-04-29T09:41:10.492Z,7.43
2018-04-29T09:43:38.091Z,7.07
2018-04-29T09:46:05.638Z,7.97
2018-04-29T09:48:33.189Z,6.80
2018-04-29T09:51:00.726Z,6.70
2018-04-29T09:53:28.327Z,7.15
2018-04-29T09:55:55.911Z,7.32
2018-04-29T09:58:23.496Z,7.78
2018-04-29T10:00:51.085Z,7.53
2018-04-29T10:03:19.570Z,8.02
2018-04-29T10:05:47.139Z,8.23
2018-04-29T10:08:14.714Z,8.40
2018-04-29T10:10:42.277Z,8.57
2018-04-29T10:13:09.871Z,8.95
2018-04-29T10:15:37.420Z,8.13
2018-04-29T10:18:04.947Z,8.63
2018-04-29T10:20:32.501Z,8.32
2018-04-29T10:23:00.031Z,8.88
2018-04-29T10:25:27.575Z,8.52
2018-04-29T10:27:55.784Z,7.62
2018-04-29T10:30:24.154Z,8.50
2018-04-29T10:32:52.782Z,8.38
2018-04-29T10:35:20.706Z,8.52
2018-04-29T10:37:49.367Z,8.30
2018-04-29T10:40:17.143Z,8.20
2018-04-29T10:42:44.917Z,8.88
2018-04-29T10:45:13.255Z,7.97
2018-04-29T10:47:40.823Z,8.18
2018-04-29T10:50:08.414Z,8.80
2018-04-29T10:52:36.029Z,7.90
2018-04-29T10:55:03.539Z,8.02
2018-04-29T10:57:31.735Z,8.27
2018-04-29T10:59:59.314Z,7.72
2018-04-29T11:02:26.846Z,8.10
2018-04-29T11:04:54.379Z,9.10
2018-04-29T11:07:21.927Z,10.23
2018-04-29T11:09:49.500Z,8.15
2018-04-29T11:12:17.044Z,7.65
2018-04-29T11:14:45.545Z,8.25
2018-04-29T11:17:13.086Z,8.60
2018-04-29T11:19:40.619Z,7.43
2018-04-29T11:22:08.261Z,8.23
2018-04-29T11:24:35.760Z,8.00
2018-04-29T11:27:03.327Z,7.20
2018-04-29T11:29:38.073Z,8.45
2018-04-29T11:32:05.722Z,7.70
2018-04-29T11:34:33.247Z,7.55
2018-04-29T11:37:00.796Z,8.00
2018-04-29T11:39:28.368Z,7.87
2018-04-29T11:41:55.907Z,7.43
2018-04-29T11:44:23.478Z,7.90
2018-04-29T11:46:51.022Z,7.90
2018-04-29T11:49:18.619Z,8.27
2018-04-29T11:51:46.157Z,7.90
2018-04-29T11:54:13.723Z,7.90
2018-04-29T11:56:41.280Z,8.90
2018-04-29T11:59:08.835Z,8.65
2018-04-29T12:01:36.370Z,8.00
2018-04-29T12:04:03.943Z,8.90
2018-04-29T12:06:31.505Z,8.75
2018-04-29T12:08:59.083Z,9.07
2018-04-29T12:11:26.617Z,8.18
2018-04-29T12:13:54.143Z,8.60
2018-04-29T12:16:21.689Z,9.63
2018-04-29T12:18:49.302Z,9.00
2018-04-29T12:21:16.948Z,8.65
2018-04-29T12:23:44.495Z,9.43
2018-04-29T12:26:12.027Z,8.48
2018-04-29T12:28:39.555Z,8.98
2018-04-29T12:31:07.094Z,8.18
2018-04-29T12:33:34.721Z,8.40
2018-04-29T12:36:02.628Z,8.48
2018-04-29T12:38:30.153Z,8.27
2018-04-29T12:40:57.694Z,8.93
2018-04-29T12:43:25.296Z,7.90
2018-04-29T12:45:52.844Z,7.90
2018-04-29T12:48:20.405Z,8.03
2018-04-29T12:50:47.936Z,8.87
2018-04-29T12:53:15.534Z,8.07
2018-04-29T12:55:43.097Z,8.30
2018-04-29T12:58:10.659Z,7.40
2018-04-29T13:00:38.247Z,8.50
2018-04-29T13:03:05.820Z,7.80
2018-04-29T13:05:33.556Z,7.90
2018-04-29T13:08:01.112Z,8.23
2018-04-29T13:10:28.647Z,7.97
2018-04-29T13:12:56.187Z,8.30
2018-04-29T13:15:23.855Z,8.93
2018-04-29T13:17:51.419Z,7.27
2018-04-29T13:20:18.955Z,7.23
2018-04-29T13:22:46.482Z,7.30
2018-04-29T13:25:14.016Z,7.50
2018-04-29T13:27:41.706Z,8.40
2018-04-29T13:30:09.275Z,7.60
2018-04-29T13:32:36.812Z,6.43
2018-04-29T13:35:04.394Z,7.77
2018-04-29T13:37:31.919Z,7.77
2018-04-29T13:39:59.459Z,7.07
2018-04-29T13:42:27.013Z,7.00
2018-04-29T13:44:54.574Z,6.93
2018-04-29T13:47:22.116Z,7.33
2018-04-29T13:49:49.711Z,6.80
2018-04-29T13:52:17.318Z,7.47
2018-04-29T13:54:44.810Z,7.13
2018-04-29T13:57:12.339Z,6.53
2018-04-29T13:59:39.864Z,7.20
2018-04-29T14:02:07.403Z,7.10
2018-04-29T14:04:34.941Z,6.80
2018-04-29T14:07:02.532Z,7.53
2018-04-29T14:09:30.080Z,6.67
2018-04-29T14:11:57.619Z,6.60
2018-04-29T14:14:25.235Z,6.83
2018-04-29T14:16:52.769Z,6.80
2018-04-29T14:19:20.303Z,7.70
2018-04-29T14:21:47.831Z,6.60
2018-04-29T14:24:15.536Z,7.60
2018-04-29T14:26:43.244Z,7.80
2018-04-29T14:29:10.775Z,7.30
2018-04-29T14:31:38.318Z,6.23
2018-04-29T14:34:05.851Z,7.43
2018-04-29T14:36:33.518Z,7.90
2018-04-29T14:39:01.052Z,7.33
2018-04-29T14:41:28.598Z,7.30
2018-04-29T14:43:56.129Z,7.43
2018-04-29T14:46:23.691Z,7.70
2018-04-29T14:48:51.284Z,7.57
2018-04-29T14:51:18.871Z,6.80
2018-04-29T14:53:46.411Z,7.30
2018-04-29T14:56:13.935Z,7.50
2018-04-29T14:58:41.503Z,7.20
2018-04-29T15:01:09.037Z,7.20
2018-04-29T15:03:36.575Z,7.47
2018-04-29T15:06:04.701Z,6.43
2018-04-29T15:08:32.266Z,6.70
2018-04-29T15:11:00.594Z,6.97
2018-04-29T15:13:28.132Z,6.63
2018-04-29T15:15:55.699Z,7.07
2018-04-29T15:18:34.981Z,6.60
2018-04-29T15:21:03.319Z,6.50
2018-04-29T15:23:30.855Z,6.87
2018-04-29T15:25:58.393Z,6.60
2018-04-29T15:28:25.925Z,6.93
2018-04-29T15:30:53.455Z,7.00
2018-04-29T15:33:20.983Z,7.30
2018-04-29T15:35:48.511Z,6.70
2018-04-29T15:38:16.050Z,6.83
2018-04-29T15:40:43.636Z,7.10
2018-04-29T15:43:11.179Z,6.57
2018-04-29T15:45:38.752Z,7.03
2018-04-29T15:48:06.335Z,7.00
2018-04-29T15:50:33.861Z,6.90
2018-04-29T15:53:01.399Z,6.77
2018-04-29T15:55:28.932Z,6.67
2018-04-29T15:57:56.471Z,6.93
2018-04-29T16:00:24.040Z,6.63
2018-04-29T16:02:51.575Z,6.30
2018-04-29T16:05:19.195Z,6.43
2018-04-29T16:07:46.754Z,7.37
2018-04-29T16:10:14.343Z,6.60
2018-04-29T16:12:41.886Z,6.37
2018-04-29T16:15:09.423Z,6.33
2018-04-29T16:17:36.979Z,6.03
2018-04-29T16:20:04.555Z,6.77
2018-04-29T16:22:32.078Z,7.20
2018-04-29T16:24:59.884Z,6.73
2018-04-29T16:27:27.442Z,6.67
2018-04-29T16:29:55.081Z,6.70
2018-04-29T16:32:22.647Z,6.53
2018-04-29T16:34:50.182Z,6.60
2018-04-29T16:37:17.756Z,6.10
2018-04-29T16:39:45.278Z,7.10
2018-04-29T16:42:12.843Z,6.40
2018-04-29T16:44:40.420Z,6.70
2018-04-29T16:47:07.986Z,6.27
2018-04-29T16:49:35.608Z,6.80
2018-04-29T16:52:03.178Z,6.27
2018-04-29T16:54:30.707Z,6.37
2018-04-29T16:56:58.249Z,5.93
2018-04-29T16:59:25.850Z,5.93
2018-04-29T17:01:53.356Z,6.00
2018-04-29T17:04:20.928Z,6.70
2018-04-29T17:06:48.452Z,5.87
2018-04-29T17:09:15.983Z,6.03
2018-04-29T17:11:43.509Z,5.43
2018-04-29T17:14:11.091Z,5.70
2018-04-29T17:16:38.729Z,5.57
2018-04-29T17:19:06.220Z,5.53
2018-04-29T17:21:33.761Z,6.20
2018-04-29T17:24:01.305Z,5.67
2018-04-29T17:26:28.882Z,5.90
2018-04-29T17:28:56.414Z,5.67
2018-04-29T17:31:23.949Z,6.27
2018-04-29T17:33:51.487Z,6.70
2018-04-29T17:36:19.036Z,4.93
2018-04-29T17:38:46.631Z,6.13
2018-04-29T17:41:14.344Z,5.70
2018-04-29T17:43:41.968Z,5.00
2018-04-29T17:46:09.729Z,5.47
2018-04-29T17:48:37.283Z,5.97
2018-04-29T17:51:04.842Z,6.07
2018-04-29T17:53:32.384Z,5.70
2018-04-29T17:55:59.955Z,6.33
2018-04-29T17:58:27.555Z,7.03
2018-04-29T18:00:55.148Z,6.30
2018-04-29T18:03:22.751Z,6.40
2018-04-29T18:05:50.332Z,6.10
2018-04-29T18:08:17.873Z,6.10
2018-04-29T18:10:45.422Z,5.90
2018-04-29T18:13:12.971Z,5.90
2018-04-29T18:15:40.493Z,6.70
2018-04-29T18:18:08.075Z,6.27
2018-04-29T18:20:35.646Z,6.30
2018-04-29T18:23:03.190Z,6.00
2018-04-29T18:25:30.724Z,5.00
2018-04-29T18:27:58.251Z,5.60
2018-04-29T18:30:25.856Z,5.77
2018-04-29T18:32:53.407Z,5.67
2018-04-29T18:35:20.946Z,6.00
2018-04-29T18:37:48.496Z,6.80
2018-04-29T18:40:16.024Z,6.47
2018-04-29T18:42:43.559Z,6.27
2018-04-29T18:45:11.087Z,7.10
2018-04-29T18:47:38.615Z,6.47
2018-04-29T18:50:06.387Z,6.30
2018-04-29T18:52:35.120Z,6.60
2018-04-29T18:55:02.660Z,6.17
2018-04-29T18:57:30.191Z,6.10
2018-04-29T18:59:57.801Z,5.87
2018-04-29T19:02:25.283Z,5.87
2018-04-29T19:04:55.597Z,5.70
2018-04-29T19:07:26.157Z,5.43
2018-04-29T19:09:58.719Z,5.30
2018-04-29T19:12:26.258Z,5.87
2018-04-29T19:14:55.285Z,5.63
2018-04-29T19:17:23.654Z,5.70
2018-04-29T19:19:51.234Z,6.00
2018-04-29T19:22:18.911Z,6.40
2018-04-29T19:24:46.468Z,6.00
2018-04-29T19:27:17.066Z,5.17
2018-04-29T19:29:44.595Z,6.10
2018-04-29T19:32:15.749Z,5.60
2018-04-29T19:34:43.335Z,6.03
2018-04-29T19:37:11.818Z,6.80
2018-04-29T19:39:39.346Z,6.47
2018-04-29T19:42:06.964Z,6.83
2018-04-29T19:44:34.514Z,5.70
2018-04-29T19:47:02.051Z,5.77
2018-04-29T19:49:29.599Z,6.63
2018-04-29T19:51:57.179Z,6.20
2018-04-29T19:54:24.755Z,7.20
2018-04-29T19:56:52.280Z,6.90
2018-04-29T19:59:19.819Z,5.30
2018-04-29T20:01:47.367Z,5.53
2018-04-29T20:04:14.900Z,6.07
2018-04-29T20:06:42.547Z,5.37
2018-04-29T20:09:10.099Z,5.80
2018-04-29T20:11:37.697Z,5.97
2018-04-29T20:14:05.201Z,5.93
2018-04-29T20:16:32.766Z,6.80
2018-04-29T20:19:00.307Z,7.10
2018-04-29T20:21:27.890Z,6.37
2018-04-29T20:23:55.903Z,6.13
2018-04-29T20:26:23.338Z,6.97
2018-04-29T20:28:50.868Z,6.83
2018-04-29T20:31:18.422Z,5.47
2018-04-29T20:33:45.955Z,5.83
2018-04-29T20:36:13.531Z,6.07
2018-04-29T20:38:41.072Z,5.43
2018-04-29T20:41:08.727Z,5.60
2018-04-29T20:43:36.252Z,5.30
2018-04-29T20:46:03.835Z,5.00
2018-04-29T20:48:31.374Z,4.70
2018-04-29T20:50:58.922Z,4.30
2018-04-29T20:53:26.480Z,4.30
2018-04-29T20:55:54.078Z,4.50
2018-04-29T20:58:21.618Z,4.00
2018-04-29T21:00:49.179Z,4.07
2018-04-29T21:03:16.790Z,4.20
2018-04-29T21:05:44.361Z,4.00
2018-04-29T21:08:11.944Z,4.23
2018-04-29T21:10:39.511Z,4.10
2018-04-29T21:13:07.036Z,3.90
2018-04-29T21:15:34.618Z,3.67
2018-04-29T21:18:02.147Z,3.67
2018-04-29T21:20:29.681Z,3.40
2018-04-29T21:22:57.251Z,3.77
2018-04-29T21:25:24.779Z,3.40
2018-04-29T21:27:52.310Z,3.57
2018-04-29T21:30:19.869Z,3.43
2018-04-29T21:32:47.925Z,3.70
2018-04-29T21:35:15.446Z,3.67
2018-04-29T21:37:42.971Z,3.30
2018-04-29T21:40:10.504Z,3.83
2018-04-29T21:42:38.032Z,3.57
2018-04-29T21:45:05.597Z,4.10
2018-04-29T21:47:33.123Z,3.50
2018-04-29T21:50:00.651Z,3.50
2018-04-29T21:52:28.195Z,3.73
2018-04-29T21:54:55.720Z,4.20
2018-04-29T21:57:23.241Z,4.07
2018-04-29T21:59:50.779Z,3.70
2018-04-29T22:02:18.305Z,4.37
2018-04-29T22:04:45.839Z,3.67
2018-04-29T22:07:13.363Z,3.50
2018-04-29T22:09:40.887Z,3.43
2018-04-29T22:12:08.462Z,3.80
2018-04-29T22:14:35.990Z,3.70
2018-04-29T22:17:03.530Z,3.70
2018-04-29T22:19:31.066Z,3.50
2018-04-29T22:21:58.605Z,3.73
2018-04-29T22:24:26.142Z,3.87
2018-04-29T22:26:53.672Z,4.20
2018-04-29T22:29:21.201Z,3.60
2018-04-29T22:31:48.736Z,4.17
2018-04-29T22:34:16.263Z,3.90
2018-04-29T22:36:43.804Z,3.90
2018-04-29T22:39:11.335Z,4.33
2018-04-29T22:41:38.867Z,3.97
2018-04-29T22:44:06.393Z,4.00
2018-04-29T22:46:33.933Z,3.73
2018-04-29T22:49:01.483Z,3.93
2018-04-29T22:51:29.048Z,4.07
2018-04-29T22:53:56.584Z,4.03
2018-04-29T22:56:24.113Z,3.90
2018-04-29T22:58:51.648Z,4.40
2018-04-29T23:01:19.222Z,4.20
2018-04-29T23:03:46.748Z,4.50
2018-04-29T23:06:14.319Z,5.00
2018-04-29T23:08:41.848Z,4.23
2018-04-29T23:11:09.415Z,3.90
2018-04-29T23:13:36.939Z,4.10
2018-04-29T23:16:04.502Z,3.70
2018-04-29T23:18:32.053Z,4.10
2018-04-29T23:20:59.576Z,3.90
2018-04-29T23:23:27.114Z,3.70
2018-04-29T23:25:54.639Z,3.30
2018-04-29T23:28:22.171Z,3.77
2018-04-29T23:30:49.747Z,3.70
2018-04-29T23:33:17.285Z,3.60
2018-04-29T23:35:44.860Z,3.87
2018-04-29T23:38:12.437Z,3.93
2018-04-29T23:40:43.424Z,3.70
2018-04-29T23:43:11.032Z,3.37
2018-04-29T23:45:38.564Z,3.60
2018-04-29T23:48:06.106Z,3.40
2018-04-29T23:50:33.627Z,3.53
2018-04-29T23:53:01.159Z,3.57
2018-04-29T23:55:28.692Z,4.10
2018-04-29T23:57:56.236Z,3.77
